Time;durP1;ratioP1;P1;durP2;ratioP2;P2;SDS_P1;SDS_P2;PMS_P1;PMS_P2;Temp;Humidity;BMP_temperature;BMP_pressure;BME280_temperature;BME280_humidity;BME280_pressure;Samples;Min_cycle;Max_cycle;Signal;HPM_P1;HPM_P2
2021/01/03 00:00:54;;;;;;;49.80;21.13;;;-0.60;99.90;;;;;;5069240;28;20111;-71
2021/01/03 00:03:19;;;;;;;47.88;19.77;;;-0.60;99.90;;;;;;5087373;28;20556;-72
2021/01/03 00:05:45;;;;;;;44.63;17.17;;;-0.50;99.90;;;;;;5086837;28;20125;-71
2021/01/03 00:08:10;;;;;;;45.40;19.25;;;-0.60;99.90;;;;;;5088082;28;20155;-71
2021/01/03 00:10:36;;;;;;;52.35;19.52;;;-0.30;99.90;;;;;;5087328;28;20085;-71
2021/01/03 00:13:01;;;;;;;48.55;19.55;;;-0.40;99.90;;;;;;5087492;28;20096;-71
2021/01/03 00:15:27;;;;;;;49.80;21.83;;;-0.70;99.90;;;;;;5086877;28;20692;-71
2021/01/03 00:17:53;;;;;;;48.40;20.83;;;-0.80;99.90;;;;;;5070123;28;20072;-71
2021/01/03 00:20:26;;;;;;;43.67;18.50;;;-0.80;99.90;;;;;;5087775;28;20153;-71
2021/01/03 00:22:52;;;;;;;43.22;18.67;;;-0.70;99.90;;;;;;5087799;28;20190;-71
2021/01/03 00:25:21;;;;;;;47.40;20.27;;;-0.60;99.90;;;;;;5087146;28;20068;-71
2021/01/03 00:27:48;;;;;;;45.30;19.08;;;-0.50;99.90;;;;;;5086671;28;20792;-72
2021/01/03 00:30:15;;;;;;;44.60;19.02;;;-0.60;99.90;;;;;;5087782;28;20061;-72
2021/01/03 00:32:41;;;;;;;44.60;19.73;;;-0.50;99.90;;;;;;5087801;28;20089;-71
2021/01/03 00:35:09;;;;;;;43.47;18.45;;;-0.60;99.90;;;;;;5087112;28;20084;-72
2021/01/03 00:37:35;;;;;;;41.50;17.35;;;-0.60;99.90;;;;;;5086865;28;20077;-72
2021/01/03 00:40:00;;;;;;;47.15;19.95;;;-0.50;99.90;;;;;;5088082;28;20075;-71
2021/01/03 00:42:26;;;;;;;50.92;20.17;;;-0.50;99.90;;;;;;5090737;28;20088;-72
2021/01/03 00:44:52;;;;;;;47.25;20.02;;;-0.50;99.90;;;;;;5087981;28;20091;-72
2021/01/03 00:47:17;;;;;;;45.10;17.83;;;-0.60;99.90;;;;;;5071690;28;20065;-72
2021/01/03 00:49:43;;;;;;;43.78;18.70;;;-0.50;99.90;;;;;;5071497;28;20176;-71
2021/01/03 00:52:08;;;;;;;42.15;17.73;;;-0.50;99.90;;;;;;5071498;28;20085;-71
2021/01/03 00:54:34;;;;;;;44.17;17.88;;;-0.80;99.90;;;;;;5058156;28;20072;-71
2021/01/03 00:56:59;;;;;;;52.42;18.25;;;-0.90;99.90;;;;;;5091290;28;20065;-71
2021/01/03 00:59:25;;;;;;;39.28;17.90;;;-0.80;99.90;;;;;;5072880;28;20088;-71
2021/01/03 01:01:51;;;;;;;43.50;17.80;;;-0.70;99.90;;;;;;5091044;28;20084;-71
2021/01/03 01:04:16;;;;;;;45.58;18.23;;;-0.60;99.90;;;;;;5090719;28;20299;-71
2021/01/03 01:06:42;;;;;;;45.10;19.40;;;-0.60;99.90;;;;;;5073207;28;20076;-72
2021/01/03 01:09:07;;;;;;;48.72;19.05;;;-0.70;99.90;;;;;;5091280;28;20096;-71
2021/01/03 01:11:36;;;;;;;48.20;18.92;;;-0.70;99.90;;;;;;5090758;28;20134;-72
2021/01/03 01:14:02;;;;;;;43.35;18.15;;;-0.90;99.90;;;;;;5090333;28;20111;-72
2021/01/03 01:16:28;;;;;;;43.88;19.25;;;-0.80;99.90;;;;;;5091011;28;20111;-72
2021/01/03 01:18:53;;;;;;;50.80;18.33;;;-0.80;99.90;;;;;;5071438;28;20092;-72
2021/01/03 01:21:19;;;;;;;44.08;18.02;;;-0.90;99.90;;;;;;5070802;28;20080;-71
2021/01/03 01:23:45;;;;;;;46.03;19.50;;;-0.80;99.90;;;;;;5055214;28;20085;-71
2021/01/03 01:26:10;;;;;;;46.35;18.42;;;-0.80;99.90;;;;;;5072212;28;20077;-71
2021/01/03 01:28:36;;;;;;;46.42;19.05;;;-0.90;99.90;;;;;;5072508;28;20131;-71
2021/01/03 01:31:01;;;;;;;47.90;19.67;;;-1.10;99.90;;;;;;5090444;28;20087;-71
2021/01/03 01:33:27;;;;;;;43.33;18.40;;;-1.10;99.90;;;;;;5090867;28;20104;-71
2021/01/03 01:35:52;;;;;;;37.22;18.23;;;-0.80;99.90;;;;;;5070485;28;20069;-71
2021/01/03 01:38:18;;;;;;;42.38;18.20;;;-0.90;99.90;;;;;;5089488;28;20077;-71
2021/01/03 01:40:44;;;;;;;44.92;18.33;;;-1.00;99.90;;;;;;5088573;28;20520;-71
2021/01/03 01:43:13;;;;;;;43.33;18.10;;;-1.00;99.90;;;;;;5068856;28;20103;-71
2021/01/03 01:45:42;;;;;;;47.55;20.15;;;-1.00;99.90;;;;;;5066124;28;20578;-71
2021/01/03 01:48:15;;;;;;;44.13;18.48;;;-0.80;99.90;;;;;;5073124;28;20577;-71
2021/01/03 01:50:44;;;;;;;42.17;18.13;;;-0.90;99.90;;;;;;5072309;28;20168;-71
2021/01/03 01:53:19;;;;;;;41.53;18.00;;;-1.00;99.90;;;;;;5090406;28;20088;-71
2021/01/03 01:55:53;;;;;;;38.47;17.48;;;-0.90;99.90;;;;;;5089046;28;20082;-71
2021/01/03 01:58:43;;;;;;;42.83;18.70;;;-0.90;99.90;;;;;;5074733;28;20069;-71
2021/01/03 02:01:12;;;;;;;38.53;16.27;;;-0.80;99.90;;;;;;5084352;28;20072;-71
2021/01/03 02:03:52;;;;;;;41.78;18.45;;;-0.90;99.90;;;;;;5089660;28;20157;-71
2021/01/03 02:06:35;;;;;;;35.15;16.25;;;-0.90;99.90;;;;;;5089557;28;20563;-71
2021/01/03 02:09:25;;;;;;;39.83;17.23;;;-0.80;99.90;;;;;;5090467;28;20158;-71
2021/01/03 02:12:10;;;;;;;41.28;17.00;;;-0.70;99.90;;;;;;5087797;28;20072;-71
2021/01/03 02:14:35;;;;;;;33.33;16.20;;;-0.70;99.90;;;;;;5089326;28;20072;-71
2021/01/03 02:17:01;;;;;;;29.58;14.25;;;-0.90;99.90;;;;;;5071824;28;20079;-71
2021/01/03 02:19:29;;;;;;;35.15;16.20;;;-0.80;99.90;;;;;;5089741;28;20125;-71
2021/01/03 02:22:21;;;;;;;35.67;15.60;;;-0.80;99.90;;;;;;5089559;28;20525;-71
2021/01/03 02:24:56;;;;;;;34.78;15.85;;;-0.90;99.90;;;;;;5060149;28;20196;-71
2021/01/03 02:27:27;;;;;;;;;;;-0.80;99.90;;;;;;5089849;28;20072;-72
2021/01/03 02:29:55;;;;;;;38.72;16.15;;;-0.60;99.90;;;;;;5089886;28;19984;-71
2021/01/03 02:32:22;;;;;;;33.85;15.55;;;-0.50;99.90;;;;;;5069282;28;20085;-71
2021/01/03 02:34:52;;;;;;;34.08;15.25;;;-0.50;99.90;;;;;;5080727;28;20068;-71
2021/01/03 02:37:25;;;;;;;38.08;16.27;;;-0.50;99.90;;;;;;5088002;28;20080;-71
2021/01/03 02:39:58;;;;;;;38.15;16.48;;;-0.80;99.90;;;;;;5089782;28;20104;-71
2021/01/03 02:42:29;;;;;;;34.17;16.73;;;-0.70;99.90;;;;;;5070739;28;20093;-72
2021/01/03 02:44:55;;;;;;;45.67;19.08;;;-0.60;99.90;;;;;;5087791;28;20099;-72
2021/01/03 02:47:24;;;;;;;41.78;18.13;;;-0.60;99.90;;;;;;5067867;28;20084;-72
2021/01/03 02:49:50;;;;;;;40.80;17.00;;;-0.60;99.90;;;;;;5069145;28;20134;-71
2021/01/03 02:52:23;;;;;;;38.47;15.70;;;-0.70;99.90;;;;;;5069042;28;20096;-71
2021/01/03 02:54:51;;;;;;;39.22;17.67;;;-0.80;99.90;;;;;;5068151;28;20077;-71
2021/01/03 02:57:17;;;;;;;47.15;17.92;;;-0.90;99.90;;;;;;5068403;28;20073;-71
2021/01/03 02:59:43;;;;;;;42.45;20.00;;;-0.80;99.90;;;;;;5074907;28;20176;-71
2021/01/03 03:02:08;;;;;;;43.45;18.92;;;-0.90;99.90;;;;;;5070358;28;20169;-71
2021/01/03 03:04:34;;;;;;;48.22;18.35;;;-0.80;99.90;;;;;;5087291;28;20146;-72
2021/01/03 03:06:59;;;;;;;38.00;18.88;;;-0.50;99.90;;;;;;5070817;28;20530;-71
2021/01/03 03:09:25;;;;;;;43.95;18.65;;;-0.50;99.90;;;;;;5085376;28;20728;-71
2021/01/03 03:11:50;;;;;;;42.75;17.83;;;-0.60;99.90;;;;;;5068271;28;20073;-71
2021/01/03 03:14:16;;;;;;;44.55;19.65;;;-0.60;99.90;;;;;;5065576;28;20085;-71
2021/01/03 03:16:42;;;;;;;40.83;17.60;;;-0.50;99.90;;;;;;5090255;28;20151;-71
2021/01/03 03:19:07;;;;;;;43.28;18.25;;;-0.70;99.90;;;;;;5071034;28;20079;-71
2021/01/03 03:21:33;;;;;;;42.25;16.58;;;-0.70;99.90;;;;;;5089004;28;20122;-71
2021/01/03 03:23:58;;;;;;;39.33;19.15;;;-0.60;99.90;;;;;;5088194;28;20150;-71
2021/01/03 03:26:24;;;;;;;40.33;17.83;;;-0.50;99.90;;;;;;5070293;28;20595;-71
2021/01/03 03:28:49;;;;;;;49.97;19.30;;;-0.30;99.90;;;;;;5088594;28;20167;-71
2021/01/03 03:31:18;;;;;;;47.45;19.55;;;-0.30;99.90;;;;;;5088674;28;20643;-71
2021/01/03 03:33:44;;;;;;;41.58;19.00;;;-0.40;99.90;;;;;;5088497;28;20166;-71
2021/01/03 03:36:09;;;;;;;40.03;17.48;;;-0.50;99.90;;;;;;5086642;28;20076;-71
2021/01/03 03:38:35;;;;;;;42.90;17.75;;;-0.50;99.90;;;;;;5083463;28;20081;-71
2021/01/03 03:41:01;;;;;;;43.80;18.48;;;-0.70;99.90;;;;;;5068248;28;20076;-71
2021/01/03 03:43:26;;;;;;;46.35;18.58;;;-0.70;99.90;;;;;;5067853;28;20108;-71
2021/01/03 03:45:52;;;;;;;47.22;18.80;;;-0.70;99.90;;;;;;5067869;28;20127;-71
2021/01/03 03:48:17;;;;;;;46.67;20.27;;;-0.50;99.90;;;;;;5068144;28;20573;-71
2021/01/03 03:50:43;;;;;;;39.00;18.27;;;-0.50;99.90;;;;;;5068342;28;20115;-71
2021/01/03 03:53:08;;;;;;;46.70;18.63;;;-0.20;99.90;;;;;;5068222;28;20126;-71
2021/01/03 03:55:34;;;;;;;41.85;17.83;;;-0.20;99.90;;;;;;5067797;28;20094;-70
2021/01/03 03:57:59;;;;;;;39.08;17.10;;;-0.20;99.90;;;;;;5067841;28;20571;-71
2021/01/03 04:00:25;;;;;;;41.55;16.50;;;0.00;99.90;;;;;;5068297;28;20083;-71
2021/01/03 04:02:51;;;;;;;40.92;17.02;;;-0.20;99.90;;;;;;5067934;28;20548;-71
2021/01/03 04:05:23;;;;;;;43.13;21.05;;;-0.30;99.90;;;;;;5079922;28;20543;-71
2021/01/03 04:07:49;;;;;;;42.30;19.20;;;-0.40;99.90;;;;;;5088131;28;20073;-71
2021/01/03 04:10:16;;;;;;;38.85;16.88;;;-0.60;99.90;;;;;;5087283;28;20108;-71
2021/01/03 04:12:41;;;;;;;42.70;16.63;;;-0.60;99.90;;;;;;5087504;28;20099;-72
2021/01/03 04:15:14;;;;;;;36.40;15.90;;;-0.50;99.90;;;;;;5088915;28;20064;-71
2021/01/03 04:17:39;;;;;;;38.20;15.30;;;-0.40;99.90;;;;;;5092696;28;20099;-71
2021/01/03 04:20:07;;;;;;;41.53;17.88;;;-0.40;99.90;;;;;;5092117;28;20536;-71
2021/01/03 04:22:33;;;;;;;37.50;16.45;;;-0.20;99.90;;;;;;5091809;28;20191;-71
2021/01/03 04:24:59;;;;;;;31.70;15.88;;;-0.30;99.90;;;;;;5091567;28;20165;-71
2021/01/03 04:27:26;;;;;;;39.97;16.73;;;-0.40;99.90;;;;;;5092173;28;20115;-71
2021/01/03 04:29:51;;;;;;;38.97;16.10;;;-0.40;99.90;;;;;;5076133;28;20093;-71
2021/01/03 04:32:17;;;;;;;40.20;16.73;;;-0.40;99.90;;;;;;5072030;28;20159;-72
2021/01/03 04:34:43;;;;;;;36.50;15.68;;;-0.60;99.90;;;;;;5059215;28;20159;-72
2021/01/03 04:37:10;;;;;;;40.25;16.23;;;-0.80;99.90;;;;;;5091964;28;20062;-72
2021/01/03 04:39:36;;;;;;;35.92;17.88;;;-0.70;99.90;;;;;;5073737;28;20515;-72
2021/01/03 04:42:06;;;;;;;38.20;14.57;;;-0.60;99.90;;;;;;5091432;28;20092;-73
2021/01/03 04:44:38;;;;;;;37.72;16.95;;;-0.30;99.90;;;;;;5073272;28;20080;-73
2021/01/03 04:47:16;;;;;;;43.58;16.25;;;-0.30;99.90;;;;;;5091361;28;20088;-72
2021/01/03 04:49:50;;;;;;;36.60;16.23;;;-0.30;99.90;;;;;;5091896;28;20517;-72
2021/01/03 04:52:38;;;;;;;39.05;18.30;;;-0.30;99.90;;;;;;5091693;28;20092;-72
2021/01/03 04:55:26;;;;;;;35.92;16.42;;;-0.40;99.90;;;;;;5090886;28;20528;-72
2021/01/03 04:57:55;;;;;;;35.53;17.58;;;-0.30;99.90;;;;;;5087313;28;20134;-71
2021/01/03 05:00:25;;;;;;;37.38;14.95;;;-0.50;99.90;;;;;;5070958;28;20077;-71
2021/01/03 05:03:11;;;;;;;36.65;15.93;;;-0.30;99.90;;;;;;5052925;28;20104;-72
2021/01/03 05:05:45;;;;;;;40.50;15.85;;;-0.50;99.90;;;;;;5081293;28;20112;-71
2021/01/03 05:08:30;;;;;;;35.97;15.30;;;-0.50;99.90;;;;;;5091371;28;20068;-71
2021/01/03 05:11:02;;;;;;;32.88;17.13;;;-0.40;99.90;;;;;;5091556;28;20072;-71
2021/01/03 05:13:54;;;;;;;40.75;17.23;;;-0.50;99.90;;;;;;5089503;28;20100;-72
2021/01/03 05:16:20;;;;;;;36.60;15.30;;;-0.20;99.90;;;;;;5089938;28;20072;-71
2021/01/03 05:18:45;;;;;;;32.47;13.95;;;-0.30;99.90;;;;;;5091583;28;20077;-71
2021/01/03 05:21:11;;;;;;;38.55;15.05;;;-0.20;99.90;;;;;;5091115;28;20729;-71
2021/01/03 05:23:39;;;;;;;40.90;15.80;;;-0.40;99.90;;;;;;5091139;28;20092;-71
2021/01/03 05:26:07;;;;;;;38.25;16.20;;;-0.50;99.90;;;;;;5090138;28;20144;-71
2021/01/03 05:28:36;;;;;;;32.15;14.57;;;-0.60;99.90;;;;;;5089187;28;20089;-71
2021/01/03 05:31:15;;;;;;;30.55;13.73;;;-0.50;99.90;;;;;;5090993;28;20530;-71
2021/01/03 05:34:03;;;;;;;37.90;16.17;;;-0.50;99.90;;;;;;5090768;28;20084;-72
2021/01/03 05:36:34;;;;;;;41.67;15.60;;;-0.30;99.90;;;;;;5090663;28;20069;-71
2021/01/03 05:39:03;;;;;;;34.40;15.02;;;-0.40;99.90;;;;;;5091099;28;20065;-71
2021/01/03 05:41:52;;;;;;;31.23;15.52;;;-0.40;99.90;;;;;;5091019;28;20092;-71
2021/01/03 05:44:28;;;;;;;37.35;15.25;;;-0.50;99.90;;;;;;5071342;28;20080;-71
2021/01/03 05:47:05;;;;;;;31.15;13.63;;;-0.50;99.90;;;;;;5090313;28;20084;-71
2021/01/03 05:49:31;;;;;;;35.70;14.13;;;-0.40;99.90;;;;;;5090700;28;20098;-71
2021/01/03 05:52:21;;;;;;;33.80;15.73;;;-0.30;99.90;;;;;;5090385;28;20171;-71
2021/01/03 05:54:48;;;;;;;35.53;14.85;;;-0.30;99.90;;;;;;5089782;28;20126;-71
2021/01/03 05:57:32;;;;;;;37.42;15.23;;;-0.20;99.90;;;;;;5090335;28;20061;-71
2021/01/03 05:59:58;;;;;;;34.72;13.40;;;-0.10;99.90;;;;;;5090960;28;20079;-71
2021/01/03 06:02:28;;;;;;;32.22;15.23;;;0.10;99.90;;;;;;5090058;28;20093;-71
2021/01/03 06:05:05;;;;;;;36.80;14.10;;;0.10;99.90;;;;;;5089662;28;20525;-71
2021/01/03 06:07:31;;;;;;;30.60;14.93;;;0.20;99.90;;;;;;5089009;28;20651;-71
2021/01/03 06:09:57;;;;;;;30.67;13.20;;;0.00;99.90;;;;;;5090158;28;20536;-71
2021/01/03 06:12:28;;;;;;;34.78;15.60;;;0.10;99.90;;;;;;5089418;28;20111;-71
2021/01/03 06:14:59;;;;;;;35.28;13.88;;;0.00;99.90;;;;;;5089826;28;20099;-71
2021/01/03 06:17:41;;;;;;;33.92;16.08;;;-0.30;99.90;;;;;;5090227;28;20513;-71
2021/01/03 06:20:23;;;;;;;30.15;12.95;;;-0.30;99.90;;;;;;5090419;28;20137;-71
2021/01/03 06:22:57;;;;;;;34.42;13.93;;;-0.20;99.90;;;;;;5089958;28;20515;-71
2021/01/03 06:25:35;;;;;;;34.00;14.90;;;-0.10;99.90;;;;;;5089463;28;20072;-71
2021/01/03 06:28:22;;;;;;;30.73;13.32;;;0.00;99.90;;;;;;5089476;28;20072;-71
2021/01/03 06:31:35;;;;;;;31.50;14.30;;;-0.20;99.90;;;;;;5089888;28;20072;-72
2021/01/03 06:34:04;;;;;;;27.52;12.93;;;-0.20;99.90;;;;;;4998831;28;20186;-72
2021/01/03 06:36:50;;;;;;;34.33;13.75;;;-0.10;99.90;;;;;;5089624;28;20072;-72
2021/01/03 06:39:52;;;;;;;29.73;14.93;;;-0.10;99.90;;;;;;5088686;28;20595;-72
2021/01/03 06:42:42;;;;;;;25.25;13.23;;;-0.30;99.90;;;;;;5089612;28;20095;-72
2021/01/03 06:45:38;;;;;;;29.27;14.60;;;-0.20;99.90;;;;;;5088951;28;20108;-72
2021/01/03 06:48:42;;;;;;;29.60;13.73;;;-0.10;99.90;;;;;;5088462;28;20072;-71
2021/01/03 06:51:19;;;;;;;25.45;11.57;;;-0.30;99.90;;;;;;5089424;28;20099;-72
2021/01/03 06:54:22;;;;;;;27.45;14.70;;;-0.10;99.90;;;;;;5089098;28;20104;-73
2021/01/03 06:57:09;;;;;;;35.58;13.80;;;-0.30;99.90;;;;;;5086809;28;20541;-71
2021/01/03 06:59:47;;;;;;;31.50;13.85;;;-0.20;99.90;;;;;;5086296;28;20076;-71
2021/01/03 07:02:23;;;;;;;33.17;14.15;;;-0.30;99.90;;;;;;5085610;28;20145;-71
2021/01/03 07:04:48;;;;;;;30.30;14.93;;;-0.30;99.90;;;;;;5086382;28;20084;-71
2021/01/03 07:07:25;;;;;;;27.70;13.68;;;-0.40;99.90;;;;;;5087232;28;20554;-71
2021/01/03 07:10:11;;;;;;;36.33;15.32;;;-0.30;99.90;;;;;;5080365;28;20558;-71
2021/01/03 07:12:39;;;;;;;;;;;-0.30;99.90;;;;;;5085393;28;20187;-71
2021/01/03 07:15:12;;;;;;;36.22;14.88;;;-0.30;99.90;;;;;;5083471;28;20010;-72
2021/01/03 07:17:55;;;;;;;30.08;14.18;;;-0.10;99.90;;;;;;5077285;28;20107;-71
2021/01/03 07:20:36;;;;;;;26.67;13.27;;;-0.20;99.90;;;;;;5079412;28;20069;-71
2021/01/03 07:23:11;;;;;;;28.65;13.00;;;-0.30;99.90;;;;;;5067261;28;20097;-72
2021/01/03 07:25:55;;;;;;;29.23;13.88;;;-0.10;99.90;;;;;;5077694;28;20548;-71
2021/01/03 07:28:27;;;;;;;28.87;13.07;;;0.00;99.90;;;;;;5068095;28;20147;-71
2021/01/03 07:31:12;;;;;;;35.20;14.65;;;0.10;99.90;;;;;;5086390;28;20346;-72
2021/01/03 07:33:58;;;;;;;30.77;13.73;;;0.10;99.90;;;;;;5070401;28;20214;-71
2021/01/03 07:36:36;;;;;;;28.50;13.93;;;0.30;99.90;;;;;;5088040;28;20083;-72
2021/01/03 07:39:21;;;;;;;32.00;16.00;;;0.20;99.90;;;;;;5088930;28;20068;-72
2021/01/03 07:41:47;;;;;;;29.23;13.63;;;0.40;99.90;;;;;;5088061;28;20092;-72
2021/01/03 07:44:33;;;;;;;30.85;13.57;;;0.20;99.90;;;;;;5087265;28;20077;-72
2021/01/03 07:47:00;;;;;;;27.85;12.90;;;0.30;99.90;;;;;;5088405;28;20104;-73
2021/01/03 07:49:43;;;;;;;25.55;12.85;;;0.20;99.90;;;;;;5067734;28;20135;-74
2021/01/03 07:52:36;;;;;;;30.27;13.57;;;0.10;99.90;;;;;;5078398;28;20175;-74
2021/01/03 07:55:04;;;;;;;32.78;13.05;;;0.10;99.90;;;;;;5069689;28;20084;-79
2021/01/03 07:57:29;;;;;;;28.98;13.75;;;0.20;99.90;;;;;;5087864;28;20103;-73
2021/01/03 07:59:57;;;;;;;31.27;15.35;;;0.00;99.90;;;;;;5088158;28;20104;-72
2021/01/03 08:02:27;;;;;;;29.65;14.88;;;0.10;99.90;;;;;;5088093;28;20654;-72
2021/01/03 08:04:55;;;;;;;32.97;14.70;;;-0.10;99.90;;;;;;5087591;28;20069;-73
2021/01/03 08:07:23;;;;;;;31.70;14.00;;;0.10;99.90;;;;;;5069356;28;20118;-72
2021/01/03 08:09:49;;;;;;;32.80;15.43;;;0.00;99.90;;;;;;5087880;28;20127;-73
2021/01/03 08:12:27;;;;;;;33.58;16.98;;;-0.10;99.90;;;;;;5088057;28;20123;-73
2021/01/03 08:15:02;;;;;;;32.63;15.98;;;-0.10;99.90;;;;;;5069385;28;20068;-73
2021/01/03 08:17:34;;;;;;;30.50;15.57;;;-0.30;99.90;;;;;;5088230;28;20068;-73
2021/01/03 08:20:03;;;;;;;33.10;15.38;;;-0.10;99.90;;;;;;5088154;28;20080;-73
2021/01/03 08:22:29;;;;;;;37.63;17.38;;;0.00;99.90;;;;;;5087652;28;20111;-72
2021/01/03 08:25:00;;;;;;;37.70;16.45;;;0.20;99.90;;;;;;5069697;28;20077;-71
2021/01/03 08:28:04;;;;;;;31.92;17.77;;;0.20;99.90;;;;;;5088561;28;20122;-74
2021/01/03 08:30:33;;;;;;;32.90;14.63;;;0.00;99.90;;;;;;5088190;28;20077;-73
2021/01/03 08:32:58;;;;;;;32.03;15.70;;;0.10;99.90;;;;;;5087855;28;20453;-72
2021/01/03 08:35:30;;;;;;;36.95;15.30;;;0.20;99.90;;;;;;5086550;28;20076;-72
2021/01/03 08:37:57;;;;;;;31.70;16.08;;;0.30;99.90;;;;;;5088184;28;20100;-72
2021/01/03 08:40:35;;;;;;;37.47;16.92;;;0.40;99.90;;;;;;5077975;28;20149;-74
2021/01/03 08:43:04;;;;;;;40.55;17.40;;;0.60;99.90;;;;;;5067440;28;20540;-72
2021/01/03 08:45:37;;;;;;;38.63;16.85;;;0.40;99.90;;;;;;5067268;28;20081;-73
2021/01/03 08:48:05;;;;;;;33.22;15.88;;;0.10;99.90;;;;;;5067858;28;20118;-76
2021/01/03 08:50:36;;;;;;;38.25;15.57;;;0.10;99.90;;;;;;5067141;28;20085;-74
2021/01/03 08:53:23;;;;;;;30.23;14.70;;;0.10;99.90;;;;;;5066483;28;20089;-78
2021/01/03 08:55:50;;;;;;;35.55;15.15;;;0.10;99.90;;;;;;5067497;28;20156;-72
2021/01/03 08:58:19;;;;;;;33.03;15.27;;;-0.10;99.90;;;;;;5067508;28;20065;-72
2021/01/03 09:00:49;;;;;;;36.05;17.65;;;0.10;99.90;;;;;;5067644;28;20425;-72
2021/01/03 09:03:20;;;;;;;33.28;16.55;;;0.10;99.90;;;;;;5070564;28;20187;-74
2021/01/03 09:05:48;;;;;;;30.67;14.80;;;0.30;99.90;;;;;;5074048;28;20133;-74
2021/01/03 09:08:31;;;;;;;33.88;17.02;;;0.20;99.90;;;;;;5053195;28;20073;-74
2021/01/03 09:11:05;;;;;;;33.33;15.88;;;0.10;99.90;;;;;;5053157;28;20080;-73
2021/01/03 09:13:31;;;;;;;34.10;15.88;;;0.10;99.90;;;;;;5070703;28;20089;-72
2021/01/03 09:16:12;;;;;;;37.17;16.95;;;0.10;99.90;;;;;;5051935;28;20077;-71
2021/01/03 09:18:39;;;;;;;26.95;13.85;;;0.10;99.90;;;;;;5073340;28;20163;-71
2021/01/03 09:21:08;;;;;;;30.48;14.02;;;0.00;99.90;;;;;;5080244;28;20104;-71
2021/01/03 09:23:38;;;;;;;31.27;14.18;;;0.10;99.90;;;;;;5067258;28;20099;-71
2021/01/03 09:26:05;;;;;;;30.08;14.38;;;0.30;99.90;;;;;;5089930;28;20443;-72
2021/01/03 09:28:38;;;;;;;30.20;15.32;;;0.20;99.90;;;;;;5084948;28;20092;-71
2021/01/03 09:31:21;;;;;;;33.05;16.55;;;0.30;99.90;;;;;;5090645;28;20081;-71
2021/01/03 09:33:54;;;;;;;36.22;17.70;;;0.40;99.90;;;;;;5090690;28;20607;-70
2021/01/03 09:36:43;;;;;;;31.08;15.80;;;0.50;99.90;;;;;;5090451;28;20080;-74
2021/01/03 09:40:06;;;;;;;32.25;15.73;;;0.30;99.90;;;;;;5083485;28;20156;-71
2021/01/03 09:42:38;;;;;;;31.95;14.98;;;0.40;99.90;;;;;;4992908;28;20106;-74
2021/01/03 09:45:48;;;;;;;37.78;16.80;;;0.50;99.90;;;;;;5002320;28;20098;-74
2021/01/03 09:48:30;;;;;;;29.52;14.30;;;0.30;99.90;;;;;;5027035;28;20091;-72
2021/01/03 09:51:29;;;;;;;30.83;15.82;;;0.30;99.90;;;;;;5074437;28;20077;-71
2021/01/03 09:54:13;;;;;;;30.75;15.23;;;0.60;99.90;;;;;;5056027;28;20092;-71
2021/01/03 09:56:40;;;;;;;30.00;15.70;;;0.80;99.90;;;;;;5088524;28;20083;-72
2021/01/03 09:59:18;;;;;;;32.45;14.98;;;0.70;99.90;;;;;;5086139;28;20104;-72
2021/01/03 10:01:46;;;;;;;32.90;14.75;;;0.50;99.90;;;;;;5087843;28;20069;-72
2021/01/03 10:04:25;;;;;;;31.17;13.98;;;0.20;99.90;;;;;;5087887;28;20081;-71
2021/01/03 10:07:09;;;;;;;32.80;14.75;;;0.10;99.90;;;;;;5087722;28;20211;-72
2021/01/03 10:09:35;;;;;;;28.30;13.77;;;0.10;99.90;;;;;;5086656;28;20099;-71
2021/01/03 10:12:25;;;;;;;32.83;14.02;;;0.10;99.90;;;;;;5089752;28;20099;-70
2021/01/03 10:15:00;;;;;;;26.58;12.63;;;0.10;99.90;;;;;;5070346;28;20084;-71
2021/01/03 10:17:26;;;;;;;31.13;14.60;;;0.10;99.90;;;;;;5070701;28;20076;-72
2021/01/03 10:19:51;;;;;;;32.40;14.93;;;0.20;99.90;;;;;;5089130;28;20528;-72
2021/01/03 10:22:28;;;;;;;28.25;13.27;;;0.30;99.90;;;;;;5066539;28;20104;-70
2021/01/03 10:24:56;;;;;;;32.80;14.02;;;0.50;99.90;;;;;;5085136;28;20072;-71
2021/01/03 10:27:22;;;;;;;26.13;13.35;;;0.70;99.90;;;;;;5087039;28;20109;-73
2021/01/03 10:29:47;;;;;;;28.55;13.55;;;0.60;99.90;;;;;;5091252;28;20152;-74
2021/01/03 10:32:13;;;;;;;36.75;13.93;;;0.40;99.90;;;;;;5097555;28;20547;-72
2021/01/03 10:34:38;;;;;;;35.60;15.07;;;0.40;99.90;;;;;;5093796;28;20088;-71
2021/01/03 10:37:05;;;;;;;22.10;10.73;;;0.40;99.90;;;;;;5089044;28;20080;-72
2021/01/03 10:39:31;;;;;;;28.33;13.35;;;0.40;99.90;;;;;;5089049;28;20119;-71
2021/01/03 10:41:58;;;;;;;27.50;13.05;;;0.40;99.90;;;;;;5087018;28;20094;-72
2021/01/03 10:44:24;;;;;;;33.67;16.60;;;0.40;99.90;;;;;;5086656;28;20068;-72
2021/01/03 10:46:50;;;;;;;34.80;15.85;;;0.40;99.90;;;;;;5097922;28;20080;-71
2021/01/03 10:49:16;;;;;;;25.58;14.07;;;0.40;99.90;;;;;;5107767;28;20096;-72
2021/01/03 10:51:43;;;;;;;29.58;15.98;;;0.40;99.90;;;;;;5069420;28;20152;-71
2021/01/03 10:54:13;;;;;;;28.60;15.38;;;0.60;99.90;;;;;;5068511;28;20160;-71
2021/01/03 10:56:39;;;;;;;26.52;13.70;;;0.60;99.90;;;;;;5068220;28;20075;-71
2021/01/03 10:59:05;;;;;;;29.13;13.88;;;0.50;99.90;;;;;;5081713;28;20607;-71
2021/01/03 11:01:31;;;;;;;24.45;13.07;;;0.60;99.90;;;;;;5063055;28;20083;-75
2021/01/03 11:03:57;;;;;;;24.25;12.50;;;0.60;99.90;;;;;;5068564;28;20100;-71
2021/01/03 11:06:22;;;;;;;37.20;16.10;;;0.60;99.90;;;;;;5085689;28;20447;-71
2021/01/03 11:08:48;;;;;;;25.40;14.00;;;0.50;99.90;;;;;;5092038;28;20100;-72
2021/01/03 11:11:21;;;;;;;24.02;12.85;;;0.50;99.90;;;;;;5091568;28;20106;-73
2021/01/03 11:13:47;;;;;;;24.92;14.43;;;0.60;99.90;;;;;;5090980;28;20115;-74
2021/01/03 11:16:12;;;;;;;24.75;12.98;;;0.70;99.90;;;;;;5090448;28;20084;-75
2021/01/03 11:18:38;;;;;;;25.25;12.80;;;0.60;99.90;;;;;;5092080;28;20551;-74
2021/01/03 11:21:10;;;;;;;29.65;13.82;;;0.80;99.90;;;;;;5088714;28;20080;-73
2021/01/03 11:23:39;;;;;;;24.95;12.02;;;0.80;99.90;;;;;;5090846;28;20179;-75
2021/01/03 11:26:04;;;;;;;24.23;13.50;;;0.80;99.90;;;;;;5091077;28;20081;-75
2021/01/03 11:28:30;;;;;;;24.92;11.82;;;0.70;99.90;;;;;;5081800;28;20081;-75
2021/01/03 11:30:58;;;;;;;25.63;14.00;;;0.60;99.90;;;;;;5071905;28;20134;-74
2021/01/03 11:33:24;;;;;;;25.90;14.05;;;0.80;99.90;;;;;;5076801;28;20128;-72
2021/01/03 11:35:50;;;;;;;23.52;11.48;;;0.90;99.90;;;;;;5066197;28;20099;-73
2021/01/03 11:38:15;;;;;;;24.77;11.30;;;0.80;99.90;;;;;;5103628;28;20421;-73
2021/01/03 11:40:41;;;;;;;26.15;13.43;;;0.90;99.90;;;;;;5102385;28;20111;-73
2021/01/03 11:43:06;;;;;;;25.38;14.88;;;0.80;99.90;;;;;;5083422;28;20154;-73
2021/01/03 11:45:32;;;;;;;26.42;14.20;;;0.60;99.90;;;;;;5081197;28;20540;-73
2021/01/03 11:47:57;;;;;;;24.15;12.27;;;0.50;99.90;;;;;;5088552;28;20080;-73
2021/01/03 11:50:24;;;;;;;22.45;11.65;;;0.60;99.90;;;;;;5088585;28;20135;-73
2021/01/03 11:52:49;;;;;;;31.30;17.30;;;0.60;99.90;;;;;;5088581;28;20088;-73
2021/01/03 11:55:18;;;;;;;51.38;27.67;;;0.50;99.90;;;;;;5088484;28;20083;-72
2021/01/03 11:57:45;;;;;;;68.45;32.33;;;0.60;99.90;;;;;;5088641;28;20083;-76
2021/01/03 12:00:13;;;;;;;57.53;25.65;;;0.60;99.90;;;;;;5091378;28;20111;-73
2021/01/03 12:02:39;;;;;;;42.40;20.17;;;0.70;99.90;;;;;;5089109;28;20096;-73
2021/01/03 12:05:06;;;;;;;41.25;20.48;;;0.80;99.90;;;;;;5104166;28;20076;-75
2021/01/03 12:07:32;;;;;;;47.28;21.30;;;0.90;99.90;;;;;;5067162;28;20091;-73
2021/01/03 12:09:57;;;;;;;41.88;21.35;;;0.90;99.90;;;;;;5084474;28;20096;-77
2021/01/03 12:12:23;;;;;;;50.58;22.65;;;0.80;99.90;;;;;;5075638;28;20624;-75
2021/01/03 12:14:49;;;;;;;37.13;17.67;;;0.80;99.90;;;;;;5092984;28;20497;-73
2021/01/03 12:17:18;;;;;;;28.20;14.82;;;1.10;99.90;;;;;;5086326;28;20444;-73
2021/01/03 12:19:45;;;;;;;21.88;12.23;;;1.30;99.90;;;;;;5107091;28;20718;-73
2021/01/03 12:22:11;;;;;;;23.50;11.57;;;1.30;99.90;;;;;;5090751;28;20163;-73
2021/01/03 12:24:36;;;;;;;22.27;11.23;;;1.20;99.90;;;;;;5097479;28;20091;-72
2021/01/03 12:27:03;;;;;;;27.20;13.02;;;1.20;99.90;;;;;;5107182;28;20080;-72
2021/01/03 12:29:29;;;;;;;23.75;13.52;;;1.10;99.90;;;;;;5095577;28;20677;-72
2021/01/03 12:32:03;;;;;;;17.42;9.70;;;1.00;99.90;;;;;;5087600;28;20599;-73
2021/01/03 12:34:29;;;;;;;21.33;10.85;;;1.00;99.90;;;;;;5087520;28;20088;-72
2021/01/03 12:37:07;;;;;;;22.02;11.60;;;1.00;99.90;;;;;;5068953;28;20125;-73
2021/01/03 12:39:33;;;;;;;24.00;12.75;;;1.20;99.90;;;;;;5101282;28;20188;-72
2021/01/03 12:42:00;;;;;;;22.73;12.35;;;1.40;99.90;;;;;;5098953;28;20080;-73
2021/01/03 12:44:26;;;;;;;19.13;10.82;;;1.50;99.90;;;;;;5098233;28;20455;-73
2021/01/03 12:46:52;;;;;;;22.15;10.75;;;1.60;99.90;;;;;;5103305;28;20080;-73
2021/01/03 12:49:17;;;;;;;24.45;12.27;;;1.60;99.90;;;;;;5097687;28;20526;-73
2021/01/03 12:51:43;;;;;;;22.85;10.88;;;1.70;99.90;;;;;;5091492;28;20088;-73